Time;durP1;ratioP1;P1;durP2;ratioP2;P2;SDS_P1;SDS_P2;PMS_P1;PMS_P2;Temp;Humidity;BMP_temperature;BMP_pressure;BME280_temperature;BME280_humidity;BME280_pressure;Samples;Min_cycle;Max_cycle;Signal;HPM_P1;HPM_P2
2021/10/29 00:01:55;;;;;;;59.43;35.17;;;;;;;2.06;100.00;99137.53;5013483;28;20041;-54
2021/10/29 00:04:20;;;;;;;58.17;34.57;;;;;;;2.02;100.00;99132.34;5011138;28;20024;-54
2021/10/29 00:06:46;;;;;;;64.57;36.87;;;;;;;1.98;100.00;99130.56;5014409;28;20147;-55
2021/10/29 00:09:11;;;;;;;58.37;35.60;;;;;;;1.97;100.00;99131.38;5007708;28;20392;-52
2021/10/29 00:11:37;;;;;;;60.60;36.67;;;;;;;1.92;100.00;99138.00;5006002;28;20481;-53
2021/10/29 00:14:03;;;;;;;55.20;34.93;;;;;;;1.93;100.00;99134.66;5007929;28;20022;-56
2021/10/29 00:16:29;;;;;;;60.03;37.83;;;;;;;1.89;100.00;99130.38;5014389;28;20055;-51
2021/10/29 00:18:54;;;;;;;60.27;37.87;;;;;;;1.87;100.00;99134.53;5011230;28;20030;-51
2021/10/29 00:21:19;;;;;;;64.00;38.07;;;;;;;1.87;100.00;99134.53;5014144;28;20029;-53
2021/10/29 00:23:45;;;;;;;60.17;37.07;;;;;;;1.86;100.00;99137.88;5009826;28;20030;-52
2021/10/29 00:26:10;;;;;;;62.00;35.97;;;;;;;1.80;100.00;99126.81;5006606;28;20395;-56
2021/10/29 00:28:36;;;;;;;63.80;36.37;;;;;;;1.77;100.00;99126.75;5014885;28;20034;-52
2021/10/29 00:31:01;;;;;;;65.63;38.23;;;;;;;1.97;100.00;99117.06;5019080;28;20042;-53
2021/10/29 00:33:27;;;;;;;71.43;39.10;;;;;;;2.11;100.00;99123.31;5014017;28;20443;-53
2021/10/29 00:35:52;;;;;;;67.73;40.77;;;;;;;2.07;100.00;99121.53;5004232;28;20030;-54
2021/10/29 00:38:18;;;;;;;63.37;37.50;;;;;;;2.01;100.00;99123.06;5004336;28;20505;-55
2021/10/29 00:40:43;;;;;;;67.50;38.30;;;;;;;2.09;100.00;99129.13;5011000;28;20439;-53
2021/10/29 00:43:10;;;;;;;66.27;39.67;;;;;;;2.03;100.00;99118.91;5011884;28;20499;-53
2021/10/29 00:45:35;;;;;;;62.77;36.60;;;;;;;1.92;100.00;99120.31;5008593;28;20099;-55
2021/10/29 00:48:02;;;;;;;64.50;39.80;;;;;;;1.94;100.00;99122.06;5008410;28;20041;-53
2021/10/29 00:50:27;;;;;;;74.07;40.63;;;;;;;1.97;100.00;99122.13;5008078;28;20040;-52
2021/10/29 00:52:53;;;;;;;66.77;39.17;;;;;;;1.94;100.00;99121.22;5009202;28;20034;-54
2021/10/29 00:55:20;;;;;;;64.00;38.00;;;;;;;1.89;100.00;99117.72;5011495;28;20144;-53
2021/10/29 00:57:46;;;;;;;76.30;43.27;;;;;;;1.93;100.00;99116.97;5011060;28;20135;-56
2021/10/29 01:00:12;;;;;;;70.00;42.97;;;;;;;1.95;100.00;99120.41;5018454;28;20422;-53
2021/10/29 01:02:38;;;;;;;71.83;42.67;;;;;;;1.89;100.00;99117.72;5013859;28;20034;-56
2021/10/29 01:05:04;;;;;;;65.57;40.87;;;;;;;1.81;100.00;99115.88;5004861;28;20112;-55
2021/10/29 01:07:33;;;;;;;73.53;41.43;;;;;;;1.77;100.00;99118.31;5011359;28;20036;-54
2021/10/29 01:09:59;;;;;;;78.70;43.63;;;;;;;1.73;100.00;99111.47;5012792;28;20403;-56
2021/10/29 01:12:25;;;;;;;76.43;44.87;;;;;;;1.89;100.00;99112.66;5010778;28;20038;-56
2021/10/29 01:14:58;;;;;;;70.10;41.00;;;;;;;2.05;100.00;99115.56;5008258;28;20547;-53
2021/10/29 01:17:25;;;;;;;69.83;40.13;;;;;;;1.93;100.00;99109.38;5005960;28;20401;-53
2021/10/29 01:19:53;;;;;;;74.57;42.43;;;;;;;1.87;100.00;99104.22;5011379;28;20033;-52
2021/10/29 01:22:19;;;;;;;68.47;42.47;;;;;;;1.73;100.00;99096.31;5009031;28;20087;-56
2021/10/29 01:24:45;;;;;;;72.23;43.27;;;;;;;1.87;100.00;99092.41;5006400;28;20030;-52
2021/10/29 01:27:12;;;;;;;71.47;41.97;;;;;;;1.97;100.00;99103.59;5011405;28;20088;-51
2021/10/29 01:29:38;;;;;;;80.37;43.50;;;;;;;1.99;100.00;99100.28;5009253;28;20040;-53
2021/10/29 01:32:06;;;;;;;75.63;44.27;;;;;;;2.01;100.00;99098.63;5002843;28;20395;-53
2021/10/29 01:34:33;;;;;;;68.40;38.83;;;;;;;1.99;100.00;99099.44;5007899;28;20428;-52
2021/10/29 01:36:59;;;;;;;67.77;40.03;;;;;;;1.93;100.00;99094.22;5011480;28;20050;-53
2021/10/29 01:39:25;;;;;;;72.60;40.83;;;;;;;1.80;100.00;99088.88;5014290;28;20085;-53
2021/10/29 01:41:50;;;;;;;66.03;39.33;;;;;;;1.71;100.00;99088.69;5003954;28;20034;-53
2021/10/29 01:44:16;;;;;;;70.77;39.10;;;;;;;1.71;100.00;99088.69;5002286;28;20037;-54
2021/10/29 01:46:41;;;;;;;67.80;39.77;;;;;;;1.64;100.00;99091.88;5003870;28;20042;-53
2021/10/29 01:49:07;;;;;;;65.93;39.23;;;;;;;1.74;100.00;99091.25;5009666;28;20033;-56
2021/10/29 01:51:32;;;;;;;70.10;39.73;;;;;;;1.71;100.00;99082.75;5008928;28;20037;-53
2021/10/29 01:53:58;;;;;;;70.70;40.50;;;;;;;1.69;100.00;99080.22;5007025;28;20038;-57
2021/10/29 01:56:24;;;;;;;69.83;39.77;;;;;;;1.69;100.00;99080.22;5013491;28;20084;-53
2021/10/29 01:58:50;;;;;;;65.57;37.80;;;;;;;1.67;100.00;99081.84;5010470;28;20029;-53
2021/10/29 02:01:16;;;;;;;71.07;41.70;;;;;;;1.63;100.00;99074.16;5016400;28;20795;-50
2021/10/29 02:03:42;;;;;;;60.63;37.13;;;;;;;1.60;100.00;99081.66;5015733;28;20034;-55
2021/10/29 02:06:07;;;;;;;67.30;37.47;;;;;;;1.55;100.00;99076.50;5010256;28;20388;-53
2021/10/29 02:08:33;;;;;;;59.70;36.37;;;;;;;1.46;100.00;99066.19;5010616;28;20032;-51
2021/10/29 02:10:59;;;;;;;63.33;37.00;;;;;;;1.43;100.00;99071.16;5013197;28;20399;-51
2021/10/29 02:13:25;;;;;;;69.80;38.03;;;;;;;1.44;100.00;99072.03;5010732;28;20091;-51
2021/10/29 02:15:51;;;;;;;64.53;37.87;;;;;;;1.48;100.00;99069.59;5016487;28;20109;-53
2021/10/29 02:18:16;;;;;;;65.07;37.10;;;;;;;1.43;100.00;99071.16;5012793;28;20472;-51
2021/10/29 02:20:44;;;;;;;66.33;38.80;;;;;;;1.51;100.00;99058.72;5011947;28;20038;-55
2021/10/29 02:23:10;;;;;;;65.87;37.37;;;;;;;1.55;100.00;99073.13;5011011;28;20041;-52
2021/10/29 02:25:39;;;;;;;63.17;36.80;;;;;;;1.55;100.00;99070.59;5016776;28;20030;-52
2021/10/29 02:28:05;;;;;;;65.37;38.70;;;;;;;1.51;100.00;99066.28;5018751;28;20501;-55
2021/10/29 02:30:30;;;;;;;60.13;37.57;;;;;;;1.54;100.00;99074.78;5012551;28;20030;-52
2021/10/29 02:32:56;;;;;;;65.53;36.87;;;;;;;1.55;100.00;99073.97;5006149;28;20034;-59
2021/10/29 02:35:21;;;;;;;68.63;37.80;;;;;;;1.62;100.00;99068.25;5011051;28;20061;-53
2021/10/29 02:37:46;;;;;;;60.27;36.50;;;;;;;1.59;100.00;99065.66;5011687;28;20029;-52
2021/10/29 02:40:12;;;;;;;61.10;37.63;;;;;;;1.51;100.00;99051.13;5014091;28;20033;-53
2021/10/29 02:42:37;;;;;;;58.57;35.67;;;;;;;1.58;100.00;99061.41;5013811;28;20079;-51
2021/10/29 02:45:03;;;;;;;56.50;36.20;;;;;;;1.55;100.00;99058.81;5011185;28;20033;-54
2021/10/29 02:47:29;;;;;;;67.17;38.70;;;;;;;1.64;100.00;99064.09;5009184;28;20414;-55
2021/10/29 02:49:54;;;;;;;65.57;38.77;;;;;;;1.71;100.00;99065.06;5016640;28;20036;-55
2021/10/29 02:52:20;;;;;;;74.60;40.93;;;;;;;1.94;100.00;99060.53;5007855;28;20034;-53
2021/10/29 02:54:45;;;;;;;75.30;43.37;;;;;;;2.04;100.00;99057.38;5017171;28;20025;-51
2021/10/29 02:57:11;;;;;;;79.80;44.07;;;;;;;2.27;100.00;99058.72;5011978;28;20373;-53
2021/10/29 02:59:36;;;;;;;75.70;43.30;;;;;;;2.46;100.00;99052.38;5003886;28;20534;-55
2021/10/29 03:02:02;;;;;;;84.80;44.80;;;;;;;2.71;100.00;99055.41;5008287;28;20036;-53
2021/10/29 03:04:28;;;;;;;84.67;48.97;;;;;;;2.94;100.00;99047.34;5014718;28;20026;-52
2021/10/29 03:06:53;;;;;;;80.87;45.80;;;;;;;3.21;100.00;99058.84;5013107;28;20097;-52
2021/10/29 03:09:18;;;;;;;85.10;47.97;;;;;;;3.34;100.00;99049.75;5010418;28;20026;-52
2021/10/29 03:11:44;;;;;;;83.20;45.10;;;;;;;3.52;100.00;99055.09;5011728;28;20360;-51
2021/10/29 03:14:10;;;;;;;78.90;43.80;;;;;;;3.61;100.00;99050.16;5006819;28;20112;-53
2021/10/29 03:16:35;;;;;;;74.90;42.70;;;;;;;3.62;100.00;99048.50;5009646;28;20068;-51
2021/10/29 03:19:01;;;;;;;68.63;40.90;;;;;;;3.64;100.00;99044.31;5015151;28;20025;-52
2021/10/29 03:21:26;;;;;;;65.93;39.90;;;;;;;3.77;100.00;99048.75;5018001;28;20021;-52
2021/10/29 03:23:52;;;;;;;60.87;37.97;;;;;;;3.80;100.00;99045.38;5008086;28;20109;-53
2021/10/29 03:26:17;;;;;;;66.60;40.50;;;;;;;3.76;100.00;99052.09;5005791;28;20053;-53
2021/10/29 03:28:42;;;;;;;64.47;38.47;;;;;;;3.93;100.00;99047.25;5008395;28;20488;-54
2021/10/29 03:31:08;;;;;;;71.57;39.17;;;;;;;3.95;100.00;99043.03;5016716;28;20439;-54
2021/10/29 03:33:38;;;;;;;62.17;37.67;;;;;;;3.90;100.00;99045.56;5015065;28;20472;-53
2021/10/29 03:36:05;;;;;;;61.13;34.93;;;;;;;3.89;100.00;99040.44;5011258;28;20855;-54
2021/10/29 03:41:08;;;;;;;58.67;37.20;;;;;;;3.91;100.00;99048.91;5012098;28;20042;-52
2021/10/29 03:43:38;;;;;;;62.13;36.13;;;;;;;3.94;100.00;99051.50;5010210;28;20042;-53
2021/10/29 03:46:14;;;;;;;55.60;36.23;;;;;;;3.88;100.00;99053.94;5008695;28;20045;-55
2021/10/29 03:51:13;;;;;;;48.93;31.60;;;;;;;3.78;100.00;99060.56;5014899;28;19909;-52
2021/10/29 03:53:50;;;;;;;49.80;32.13;;;;;;;3.74;100.00;99055.41;5005809;28;20042;-55
2021/10/29 03:56:21;;;;;;;53.30;32.10;;;;;;;3.67;100.00;99055.34;5010264;28;20144;-53
2021/10/29 03:58:48;;;;;;;52.13;32.57;;;;;;;3.63;100.00;99062.88;5015426;28;20026;-54
2021/10/29 04:01:15;;;;;;;57.83;32.50;;;;;;;3.61;100.00;99064.53;5020965;28;20436;-53
2021/10/29 04:03:41;;;;;;;54.13;32.47;;;;;;;3.56;100.00;99066.16;5005432;28;20072;-52
2021/10/29 04:06:07;;;;;;;56.87;34.63;;;;;;;3.50;100.00;99059.31;5009339;28;20057;-52
2021/10/29 04:08:32;;;;;;;59.77;34.00;;;;;;;3.48;100.00;99060.94;5006068;28;20080;-52
2021/10/29 04:10:57;;;;;;;58.60;34.90;;;;;;;3.50;100.00;99069.44;5015638;28;20037;-52
2021/10/29 04:13:26;;;;;;;51.90;34.87;;;;;;;3.50;100.00;99060.97;5008825;28;20029;-52
2021/10/29 04:15:51;;;;;;;53.13;33.50;;;;;;;3.44;100.00;99061.72;5004408;28;20395;-52
2021/10/29 04:18:17;;;;;;;59.60;34.67;;;;;;;3.45;100.00;99065.13;5005084;28;20033;-52
2021/10/29 04:20:42;;;;;;;55.33;32.53;;;;;;;3.40;100.00;99059.97;5014259;28;20347;-53
2021/10/29 04:23:08;;;;;;;48.93;30.73;;;;;;;3.39;100.00;99052.38;5008594;28;20030;-51
2021/10/29 04:25:33;;;;;;;64.70;34.77;;;;;;;3.45;100.00;99053.31;5012823;28;20125;-51
2021/10/29 04:28:05;;;;;;;59.13;34.30;;;;;;;3.48;100.00;99049.97;5011195;28;20042;-51
2021/10/29 04:30:30;;;;;;;57.43;33.70;;;;;;;3.44;100.00;99054.13;5013004;28;20038;-54
2021/10/29 04:32:57;;;;;;;57.97;34.27;;;;;;;3.44;100.00;99050.72;5004419;28;20041;-50
2021/10/29 04:35:27;;;;;;;56.07;35.40;;;;;;;3.40;100.00;99059.97;5011950;28;20029;-51
2021/10/29 04:37:52;;;;;;;53.40;34.23;;;;;;;3.38;100.00;99059.13;5015521;28;20061;-52
2021/10/29 04:40:18;;;;;;;59.40;34.47;;;;;;;3.37;100.00;99065.00;5013108;28;20058;-51
2021/10/29 04:42:44;;;;;;;55.47;33.43;;;;;;;3.31;100.00;99059.81;5004436;28;20140;-53
2021/10/29 04:45:10;;;;;;;55.97;34.47;;;;;;;3.30;100.00;99054.75;5005088;28;20038;-52
2021/10/29 04:47:35;;;;;;;57.33;34.43;;;;;;;3.19;100.00;99052.88;5015531;28;20034;-51
2021/10/29 04:50:02;;;;;;;53.17;32.63;;;;;;;3.15;100.00;99058.72;5009428;28;20030;-52
2021/10/29 04:52:28;;;;;;;56.93;34.23;;;;;;;3.10;100.00;99054.38;5011319;28;20034;-51
2021/10/29 04:54:54;;;;;;;53.40;32.47;;;;;;;3.05;100.00;99051.81;5008171;28;20041;-53
2021/10/29 04:57:19;;;;;;;50.33;33.33;;;;;;;2.99;100.00;99044.09;5009093;28;20064;-55
2021/10/29 04:59:45;;;;;;;53.13;34.10;;;;;;;2.99;100.00;99049.16;5006901;28;20028;-51
2021/10/29 05:02:10;;;;;;;50.23;32.27;;;;;;;2.98;100.00;99046.59;5009211;28;20036;-51
2021/10/29 05:04:36;;;;;;;50.87;32.80;;;;;;;2.93;100.00;99053.28;5011128;28;20030;-51
2021/10/29 05:07:01;;;;;;;54.43;34.37;;;;;;;2.88;100.00;99053.19;5014460;28;20025;-52
2021/10/29 05:09:26;;;;;;;58.50;34.97;;;;;;;2.87;100.00;99048.09;5006461;28;20041;-51
2021/10/29 05:11:52;;;;;;;51.80;32.20;;;;;;;2.84;100.00;99053.97;5003640;28;20485;-51
2021/10/29 05:14:17;;;;;;;53.10;33.17;;;;;;;2.79;100.00;99047.94;5011072;28;20058;-54
2021/10/29 05:16:43;;;;;;;53.83;33.63;;;;;;;2.73;100.00;99047.81;5010410;28;20041;-51
2021/10/29 05:19:08;;;;;;;49.73;31.67;;;;;;;2.66;100.00;99046.88;5007380;28;20512;-53
2021/10/29 05:21:34;;;;;;;61.57;33.10;;;;;;;2.59;100.00;99051.78;5005096;28;20376;-51
2021/10/29 05:23:59;;;;;;;58.67;34.00;;;;;;;2.56;100.00;99044.97;5005663;28;20025;-52
2021/10/29 05:26:25;;;;;;;61.17;35.90;;;;;;;2.62;100.00;99052.69;5011788;28;20037;-52
2021/10/29 05:28:50;;;;;;;62.20;36.43;;;;;;;2.74;100.00;99047.84;5013547;28;20045;-55
2021/10/29 05:31:16;;;;;;;61.80;34.97;;;;;;;2.81;100.00;99058.09;5006867;28;20044;-52
2021/10/29 05:33:41;;;;;;;61.07;35.27;;;;;;;2.75;100.00;99052.09;5004138;28;20038;-51
2021/10/29 05:36:07;;;;;;;52.63;33.43;;;;;;;2.63;100.00;99056.91;5005456;28;20040;-51
2021/10/29 05:38:33;;;;;;;58.50;35.30;;;;;;;2.56;100.00;99050.03;5006703;28;20029;-52
2021/10/29 05:41:00;;;;;;;61.90;34.80;;;;;;;2.55;100.00;99058.44;5013253;28;20074;-54
2021/10/29 05:43:26;;;;;;;59.53;35.47;;;;;;;2.60;100.00;99053.47;5014143;28;20034;-54
2021/10/29 05:45:52;;;;;;;63.73;35.87;;;;;;;2.50;100.00;99061.72;5009618;28;20038;-52
2021/10/29 05:48:17;;;;;;;59.90;37.97;;;;;;;2.48;100.00;99055.78;5003233;28;20042;-53
2021/10/29 05:50:48;;;;;;;62.20;36.93;;;;;;;2.47;100.00;99056.59;5012744;28;20037;-54
2021/10/29 05:53:23;;;;;;;64.30;37.93;;;;;;;2.58;100.00;99061.06;5012753;28;20529;-51
2021/10/29 05:55:48;;;;;;;57.87;37.00;;;;;;;2.58;100.00;99057.66;5008350;28;20037;-51
2021/10/29 05:58:14;;;;;;;62.80;35.97;;;;;;;2.65;100.00;99065.41;5006850;28;20036;-52
2021/10/29 06:00:39;;;;;;;59.97;35.80;;;;;;;2.75;100.00;99067.28;5002629;28;20038;-52
2021/10/29 06:03:06;;;;;;;57.67;34.17;;;;;;;2.78;100.00;99065.63;5007922;28;20034;-51
2021/10/29 06:05:32;;;;;;;60.27;35.93;;;;;;;2.78;100.00;99070.69;5010743;28;20040;-51
2021/10/29 06:07:58;;;;;;;63.40;37.07;;;;;;;2.96;100.00;99071.03;5006577;28;20041;-51
2021/10/29 06:10:24;;;;;;;60.60;35.60;;;;;;;2.93;100.00;99071.00;5006014;28;20034;-55
2021/10/29 06:12:50;;;;;;;59.20;37.13;;;;;;;2.96;100.00;99071.91;5010759;28;20121;-53
2021/10/29 06:15:17;;;;;;;59.50;36.17;;;;;;;2.99;100.00;99066.88;5006163;28;20431;-51
2021/10/29 06:17:43;;;;;;;63.87;36.60;;;;;;;3.13;100.00;99073.06;5007112;28;20116;-53
2021/10/29 06:20:10;;;;;;;58.57;34.77;;;;;;;3.36;100.00;99070.88;5012331;28;20551;-54
2021/10/29 06:22:43;;;;;;;58.97;34.40;;;;;;;3.41;100.00;99076.88;5017466;28;20037;-54
2021/10/29 06:25:13;;;;;;;59.20;35.60;;;;;;;3.52;100.00;99075.38;5004515;28;20451;-53
2021/10/29 06:30:06;;;;;;;57.63;33.90;;;;;;;3.86;100.00;99081.81;5007280;28;20571;-52
2021/10/29 06:32:32;;;;;;;67.07;36.33;;;;;;;3.88;100.00;99074.25;5012631;28;20440;-52
2021/10/29 06:34:58;;;;;;;56.20;34.50;;;;;;;4.07;100.00;99073.69;5005508;28;20038;-53
2021/10/29 06:37:24;;;;;;;57.37;34.80;;;;;;;4.27;100.00;99079.88;5006200;28;20089;-55
2021/10/29 06:39:50;;;;;;;54.30;32.63;;;;;;;4.23;100.00;99084.88;5005233;28;20053;-56
2021/10/29 06:42:22;;;;;;;55.17;33.13;;;;;;;4.35;100.00;99087.56;5009626;28;20476;-53
2021/10/29 06:45:01;;;;;;;54.13;32.63;;;;;;;4.46;100.00;99071.63;5008432;28;20029;-55
2021/10/29 07:00:39;;;;;;;46.43;30.30;;;;;;;5.52;100.00;99072.72;5011132;28;20034;-55
2021/10/29 07:41:02;;;;;;;37.27;25.10;;;;;;;7.53;100.00;99060.84;5009547;28;20664;-55
2021/10/29 07:45:56;;;;;;;38.20;24.43;;;;;;;7.83;100.00;99060.84;5011837;28;20049;-55
2021/10/29 07:48:21;;;;;;;39.00;25.67;;;;;;;7.94;100.00;99066.75;5011336;28;20033;-53
2021/10/29 07:50:47;;;;;;;37.80;25.17;;;;;;;8.13;100.00;99065.03;5007600;28;20113;-54
2021/10/29 07:53:12;;;;;;;39.73;25.37;;;;;;;8.06;100.00;99064.19;5007423;28;20610;-53
2021/10/29 07:55:38;;;;;;;35.97;23.83;;;;;;;8.31;100.00;99059.94;5006355;28;20035;-54
2021/10/29 07:58:04;;;;;;;39.77;26.17;;;;;;;8.46;100.00;99061.56;5007835;28;20029;-55
2021/10/29 08:00:31;;;;;;;39.63;24.67;;;;;;;8.66;100.00;99054.66;5007393;28;20089;-55
2021/10/29 08:02:57;;;;;;;35.50;23.33;;;;;;;8.96;100.00;99056.19;5006748;28;20038;-53
2021/10/29 08:05:23;;;;;;;36.10;23.87;;;;;;;9.15;100.00;99056.09;5007970;28;20116;-54
2021/10/29 08:07:49;;;;;;;30.50;23.30;;;;;;;9.31;100.00;99054.28;5008083;28;20096;-53
2021/10/29 08:10:15;;;;;;;39.03;25.67;;;;;;;9.46;100.00;99061.00;5006802;28;20052;-56
2021/10/29 08:12:40;;;;;;;31.80;23.57;;;;;;;9.63;100.00;99054.03;5009208;28;20034;-54
2021/10/29 08:15:08;;;;;;;36.83;25.87;;;;;;;9.77;100.00;99051.34;5008314;28;20057;-54
2021/10/29 08:17:35;;;;;;;37.13;23.77;;;;;;;9.84;100.00;99048.72;5009526;28;20017;-56
2021/10/29 08:20:02;;;;;;;35.93;23.80;;;;;;;9.97;100.00;99039.22;5004960;28;20068;-56
2021/10/29 08:22:27;;;;;;;40.30;24.92;;;;;;;9.91;100.00;99032.44;5007178;28;20495;-53
2021/10/29 08:24:53;;;;;;;37.13;26.05;;;;;;;9.99;100.00;99033.19;5008601;28;20061;-56
2021/10/29 08:27:18;;;;;;;37.95;24.38;;;;;;;10.14;100.00;99029.66;5009436;28;20032;-53
2021/10/29 08:29:45;;;;;;;37.53;25.42;;;;;;;10.22;100.00;99027.03;5006808;28;20037;-54
2021/10/29 08:32:11;;;;;;;35.42;25.80;;;;;;;10.38;100.00;99031.94;5005759;28;20080;-54
2021/10/29 08:34:36;;;;;;;36.38;26.00;;;;;;;10.39;99.62;99032.81;5008936;28;20400;-57
2021/10/29 08:37:05;;;;;;;36.50;25.05;;;;;;;10.54;100.00;99025.75;5008136;28;20030;-56
2021/10/29 08:39:32;;;;;;;34.15;23.48;;;;;;;10.67;98.13;99028.16;5004724;28;20036;-58
2021/10/29 08:41:59;;;;;;;31.90;24.77;;;;;;;10.83;98.14;99027.94;5005964;28;20029;-54
2021/10/29 08:44:26;;;;;;;34.67;25.30;;;;;;;10.88;96.86;99033.88;5007336;28;20041;-53
2021/10/29 08:46:52;;;;;;;36.10;25.23;;;;;;;10.94;95.64;99030.38;5006917;28;20031;-56
2021/10/29 08:49:18;;;;;;;36.70;24.23;;;;;;;11.05;93.18;99033.63;5007955;28;20408;-56
2021/10/29 08:51:44;;;;;;;33.88;25.70;;;;;;;10.92;93.61;99022.69;5005812;28;20038;-53
2021/10/29 08:54:10;;;;;;;37.75;26.17;;;;;;;11.13;93.67;99024.09;5010524;28;20052;-58
2021/10/29 08:56:36;;;;;;;35.80;25.38;;;;;;;11.30;92.09;99026.41;5002495;28;20046;-53
2021/10/29 08:59:10;;;;;;;35.95;25.25;;;;;;;11.39;90.59;99016.84;5008734;28;20035;-57
2021/10/29 09:01:45;;;;;;;35.13;24.30;;;;;;;11.55;89.20;99007.16;5006429;28;20040;-55
2021/10/29 09:04:11;;;;;;;36.70;24.85;;;;;;;11.58;89.23;99007.13;5007152;28;20131;-54
2021/10/29 09:06:53;;;;;;;37.20;26.20;;;;;;;11.64;88.22;99001.88;5007714;28;20030;-57
2021/10/29 09:31:33;;;;;;;32.75;24.08;;;;;;;12.64;84.37;98981.97;5007231;28;20175;-58
2021/10/29 09:34:12;;;;;;;33.75;23.52;;;;;;;12.71;83.06;98983.50;5010697;28;20208;-56
2021/10/29 09:36:51;;;;;;;31.10;23.90;;;;;;;12.84;84.05;98981.50;5010355;28;20041;-56
2021/10/29 09:39:27;;;;;;;31.65;23.38;;;;;;;12.92;81.00;98974.47;5007704;28;20030;-56
2021/10/29 09:42:08;;;;;;;32.13;23.55;;;;;;;13.06;78.66;98972.41;5005940;28;20053;-55
2021/10/29 09:44:46;;;;;;;35.03;24.08;;;;;;;13.20;77.94;98967.81;5012803;28;20455;-55
2021/10/29 09:47:13;;;;;;;34.70;22.83;;;;;;;13.16;78.14;98961.03;5008409;28;20045;-54
2021/10/29 09:49:52;;;;;;;32.72;23.60;;;;;;;13.25;77.94;98955.66;5008810;28;20147;-53
2021/10/29 09:54:58;;;;;;;29.90;20.33;;;;;;;13.64;69.74;98953.81;5011870;28;20034;-52
2021/10/29 09:57:24;;;;;;;25.75;20.23;;;;;;;13.78;68.13;98947.47;5006050;28;20052;-56
2021/10/29 10:00:00;;;;;;;26.15;18.85;;;;;;;13.90;68.46;98954.84;5002797;28;20037;-57
2021/10/29 10:02:28;;;;;;;26.25;18.45;;;;;;;13.99;66.04;98955.47;5005150;28;20076;-55
2021/10/29 10:04:59;;;;;;;22.77;17.92;;;;;;;14.10;66.91;98945.69;5007629;28;20479;-53
2021/10/29 10:07:30;;;;;;;27.75;19.52;;;;;;;14.19;65.15;98952.31;5003088;28;20383;-57
2021/10/29 10:09:59;;;;;;;28.48;20.77;;;;;;;14.27;64.77;98952.09;5004976;28;20022;-53
2021/10/29 10:12:28;;;;;;;28.45;20.17;;;;;;;14.39;63.81;98941.44;5007135;28;20037;-54
2021/10/29 10:14:56;;;;;;;24.00;18.83;;;;;;;14.41;62.43;98943.09;5016754;28;20046;-56
2021/10/29 10:17:22;;;;;;;34.40;20.80;;;;;;;14.41;62.70;98944.84;5009600;28;20038;-55
2021/10/29 10:19:50;;;;;;;25.27;20.05;;;;;;;14.45;62.53;98946.44;5011789;28;20053;-53
2021/10/29 10:22:18;;;;;;;24.90;19.50;;;;;;;14.53;62.50;98935.00;5010566;28;20022;-58
2021/10/29 10:24:49;;;;;;;27.25;20.88;;;;;;;14.66;61.55;98935.47;5013491;28;20037;-57
2021/10/29 10:48:44;;;;;;;24.00;18.75;;;;;;;15.20;57.82;98903.63;5007297;28;20141;-56
2021/10/29 11:10:19;;;;;;;25.90;17.98;;;;;;;15.85;53.88;98885.88;5006814;28;20050;-53
2021/10/29 11:12:45;;;;;;;24.23;18.77;;;;;;;15.81;54.58;98881.72;5010757;28;20483;-53
2021/10/29 11:15:18;;;;;;;26.55;16.95;;;;;;;15.95;53.91;98876.91;5004365;28;20037;-52
2021/10/29 11:17:48;;;;;;;22.40;17.98;;;;;;;15.92;53.63;98872.66;5008002;28;20085;-52
2021/10/29 11:20:38;;;;;;;24.38;18.92;;;;;;;16.18;53.50;98870.84;5003300;28;20488;-55
2021/10/29 11:23:09;;;;;;;23.25;19.20;;;;;;;16.20;53.36;98867.31;5009729;28;20030;-52
2021/10/29 11:26:19;;;;;;;26.00;19.10;;;;;;;16.22;52.56;98868.09;5010753;28;20029;-54
2021/10/29 11:28:48;;;;;;;29.95;20.00;;;;;;;16.06;53.42;98867.00;5008018;28;20033;-55
2021/10/29 11:31:21;;;;;;;23.33;17.42;;;;;;;15.98;53.93;98869.00;5009591;28;20026;-56
2021/10/29 11:33:52;;;;;;;21.10;17.50;;;;;;;16.15;54.32;98848.53;5007702;28;20829;-54
2021/10/29 11:36:24;;;;;;;27.48;17.48;;;;;;;16.03;53.60;98848.16;5006055;28;20475;-54
2021/10/29 11:38:51;;;;;;;22.42;18.65;;;;;;;15.96;53.40;98842.34;5005609;28;20305;-57
2021/10/29 11:41:38;;;;;;;24.27;18.08;;;;;;;15.92;54.09;98843.38;5009171;28;20021;-55
2021/10/29 11:44:16;;;;;;;27.92;17.88;;;;;;;16.13;53.74;98847.72;5007058;28;20049;-53
2021/10/29 11:46:43;;;;;;;26.15;19.98;;;;;;;16.06;53.60;98846.28;5004192;28;20388;-55
2021/10/29 11:49:12;;;;;;;26.13;18.83;;;;;;;16.31;52.51;98843.59;5010489;28;20058;-55
2021/10/29 11:51:39;;;;;;;24.45;19.10;;;;;;;16.36;51.89;98836.50;5009499;28;20038;-57
2021/10/29 11:56:42;;;;;;;29.25;19.05;;;;;;;16.32;51.89;98828.03;5006758;28;20501;-53
2021/10/29 12:09:49;;;;;;;23.35;18.55;;;;;;;15.90;53.17;98819.31;5008958;28;20392;-55
2021/10/29 12:12:22;;;;;;;25.02;18.60;;;;;;;15.82;53.33;98817.03;5007496;28;20432;-53
2021/10/29 12:14:51;;;;;;;21.15;17.42;;;;;;;15.88;52.34;98821.97;5007501;28;20065;-54
2021/10/29 12:20:03;;;;;;;23.70;16.90;;;;;;;15.87;52.54;98809.09;5008166;28;20038;-54
2021/10/29 12:22:50;;;;;;;21.33;15.75;;;;;;;15.83;52.98;98807.50;5006616;28;20021;-58
2021/10/29 12:27:56;;;;;;;19.75;16.40;;;;;;;16.09;51.86;98807.38;5009847;28;20488;-57
2021/10/29 12:34:00;;;;;;;19.17;16.05;;;;;;;16.17;51.58;98802.75;5005729;28;20022;-58
2021/10/29 13:03:04;;;;;;;21.20;16.15;;;;;;;15.59;52.07;98767.06;5005922;28;20040;-55
2021/10/29 13:05:29;;;;;;;21.45;16.80;;;;;;;15.61;52.61;98771.31;5003896;28;20030;-56
2021/10/29 13:07:55;;;;;;;24.70;15.80;;;;;;;15.61;52.36;98770.44;5003184;28;20473;-52
2021/10/29 13:10:22;;;;;;;22.05;17.40;;;;;;;15.61;52.00;98773.88;5002593;28;20028;-54
2021/10/29 13:13:13;;;;;;;18.35;14.70;;;;;;;15.67;51.24;98765.88;5006042;28;20030;-56
2021/10/29 13:15:36;;;;;;;21.50;16.45;;;;;;;15.59;52.22;98765.34;5008360;28;20029;-56
2021/10/29 13:18:07;;;;;;;17.92;14.68;;;;;;;15.41;51.81;98760.78;5006970;28;20053;-54
2021/10/29 13:59:01;;;;;;;22.95;16.33;;;;;;;14.82;53.65;98758.56;5001571;28;20065;-56
2021/10/29 14:28:39;;;;;;;21.95;16.90;;;;;;;14.24;58.28;98764.78;4965075;28;20081;-55
2021/10/29 14:31:17;;;;;;;20.02;15.93;;;;;;;14.13;58.61;98764.28;4962246;28;20035;-55
2021/10/29 14:33:51;;;;;;;19.23;14.65;;;;;;;14.04;57.73;98770.56;4967153;28;20424;-58
2021/10/29 14:36:19;;;;;;;22.58;15.43;;;;;;;13.98;59.60;98763.00;4965487;28;20409;-58
2021/10/29 14:39:36;;;;;;;17.27;15.07;;;;;;;13.95;58.65;98759.69;4963857;28;20623;-56
2021/10/29 14:41:37;;;;;;;20.60;16.00;;;;;;;13.76;59.07;98767.09;4991162;28;20062;-53
2021/10/29 14:44:11;;;;;;;19.27;15.18;;;;;;;13.73;60.02;98762.06;5004309;28;20046;-53
2021/10/29 14:49:10;;;;;;;21.08;15.95;;;;;;;13.66;60.27;98755.41;5002475;28;20421;-56
2021/10/29 15:45:38;;;;;;;21.55;16.40;;;;;;;11.15;81.61;98752.06;5009708;28;20041;-56
2021/10/29 15:50:36;;;;;;;23.35;17.95;;;;;;;10.92;84.33;98747.38;5019018;28;20041;-59
2021/10/29 15:53:07;;;;;;;24.92;16.95;;;;;;;10.83;86.74;98748.38;5008773;28;20137;-58
2021/10/29 15:58:09;;;;;;;28.65;21.70;;;;;;;10.79;86.86;98761.28;5009752;28;20030;-57
2021/10/29 16:01:00;;;;;;;24.45;17.02;;;;;;;10.73;86.96;98751.16;5009070;28;20030;-58
2021/10/29 16:19:27;;;;;;;29.45;19.45;;;;;;;10.06;95.62;98772.69;5018051;28;20030;-57
2021/10/29 16:21:52;;;;;;;25.05;20.02;;;;;;;9.96;97.78;98771.16;5009506;28;20369;-53
2021/10/29 16:24:18;;;;;;;30.73;22.25;;;;;;;9.87;98.66;98761.88;5006336;28;20033;-58
2021/10/29 16:26:45;;;;;;;27.70;20.13;;;;;;;9.90;98.04;98779.75;5005882;28;20117;-58
2021/10/29 16:29:13;;;;;;;26.23;21.05;;;;;;;9.85;99.13;98780.69;5006169;28;20034;-58
2021/10/29 16:31:44;;;;;;;29.33;21.50;;;;;;;9.83;99.94;98772.19;5008551;28;20037;-60
2021/10/29 16:34:10;;;;;;;32.45;22.30;;;;;;;9.85;99.71;98781.53;5004908;28;20484;-56
2021/10/29 16:36:36;;;;;;;28.23;21.38;;;;;;;9.76;100.00;98768.03;5007362;28;20031;-60
2021/10/29 16:39:02;;;;;;;29.43;20.73;;;;;;;9.66;100.00;98774.97;5010980;28;20021;-59